sensor_id;sensor_type;location;lat;lon;timestamp;pressure;altitude;pressure_sealevel;temperature;humidity
21869;BME280;11099;41.564;23.296;2023-08-08T00:00:06;97073.78;;;20.93;85.12
21869;BME280;11099;41.564;23.296;2023-08-08T00:02:32;97056.75;;;20.67;85.59
21869;BME280;11099;41.564;23.296;2023-08-08T00:04:57;97116.69;;;20.91;85.54
21869;BME280;11099;41.564;23.296;2023-08-08T00:07:22;97144.19;;;21.07;85.83
21869;BME280;11099;41.564;23.296;2023-08-08T00:09:48;97037.69;;;20.32;85.15
21869;BME280;11099;41.564;23.296;2023-08-08T00:12:14;97021.50;;;20.35;84.83
21869;BME280;11099;41.564;23.296;2023-08-08T00:14:39;97079.88;;;20.50;84.60
21869;BME280;11099;41.564;23.296;2023-08-08T00:17:05;97139.53;;;21.04;83.61
21869;BME280;11099;41.564;23.296;2023-08-08T00:19:30;97131.00;;;20.88;83.84
21869;BME280;11099;41.564;23.296;2023-08-08T00:21:56;97163.13;;;21.03;83.92
21869;BME280;11099;41.564;23.296;2023-08-08T00:24:21;97095.69;;;20.45;84.39
21869;BME280;11099;41.564;23.296;2023-08-08T00:26:47;97129.03;;;20.74;83.36
21869;BME280;11099;41.564;23.296;2023-08-08T00:29:12;97084.56;;;20.68;83.05
21869;BME280;11099;41.564;23.296;2023-08-08T00:31:38;97027.66;;;20.29;82.91
21869;BME280;11099;41.564;23.296;2023-08-08T00:34:03;97044.19;;;20.13;83.92
21869;BME280;11099;41.564;23.296;2023-08-08T00:36:29;97045.03;;;20.27;82.95
21869;BME280;11099;41.564;23.296;2023-08-08T00:38:54;97115.13;;;20.72;82.83
21869;BME280;11099;41.564;23.296;2023-08-08T00:41:20;97071.31;;;20.41;83.53
21869;BME280;11099;41.564;23.296;2023-08-08T00:43:45;97154.22;;;20.96;83.43
21869;BME280;11099;41.564;23.296;2023-08-08T00:46:11;97079.66;;;20.00;85.13
21869;BME280;11099;41.564;23.296;2023-08-08T00:48:37;97116.09;;;20.35;84.83
21869;BME280;11099;41.564;23.296;2023-08-08T00:51:02;97092.78;;;20.09;85.32
21869;BME280;11099;41.564;23.296;2023-08-08T00:53:29;97199.69;;;20.62;85.67
21869;BME280;11099;41.564;23.296;2023-08-08T00:55:58;97143.16;;;20.39;86.52
21869;BME280;11099;41.564;23.296;2023-08-08T00:58:24;97197.03;;;20.76;85.42
21869;BME280;11099;41.564;23.296;2023-08-08T01:00:49;97149.19;;;20.14;85.72
21869;BME280;11099;41.564;23.296;2023-08-08T01:03:15;97165.63;;;20.53;85.10
21869;BME280;11099;41.564;23.296;2023-08-08T01:05:48;97190.44;;;20.66;85.66
21869;BME280;11099;41.564;23.296;2023-08-08T01:08:21;97184.56;;;20.50;85.89
21869;BME280;11099;41.564;23.296;2023-08-08T01:10:48;97216.84;;;20.29;87.23
21869;BME280;11099;41.564;23.296;2023-08-08T01:13:20;97204.84;;;20.22;87.85
21869;BME280;11099;41.564;23.296;2023-08-08T01:15:48;97172.34;;;20.12;87.81
21869;BME280;11099;41.564;23.296;2023-08-08T01:18:15;97185.50;;;20.20;88.35
21869;BME280;11099;41.564;23.296;2023-08-08T01:20:42;97144.31;;;19.79;89.11
21869;BME280;11099;41.564;23.296;2023-08-08T01:25:53;97155.22;;;19.90;89.80
21869;BME280;11099;41.564;23.296;2023-08-08T01:28:23;97101.47;;;19.30;91.57
21869;BME280;11099;41.564;23.296;2023-08-08T01:30:48;97099.19;;;19.32;92.29
21869;BME280;11099;41.564;23.296;2023-08-08T01:33:14;97131.63;;;19.39;92.76
21869;BME280;11099;41.564;23.296;2023-08-08T01:35:43;97255.00;;;20.16;93.08
21869;BME280;11099;41.564;23.296;2023-08-08T01:38:30;97221.09;;;20.30;92.75
21869;BME280;11099;41.564;23.296;2023-08-08T01:40:58;97158.34;;;19.51;94.60
21869;BME280;11099;41.564;23.296;2023-08-08T01:43:24;97231.91;;;19.82;94.76
21869;BME280;11099;41.564;23.296;2023-08-08T01:45:51;97141.69;;;19.42;93.92
21869;BME280;11099;41.564;23.296;2023-08-08T01:48:17;97175.47;;;19.66;93.76
21869;BME280;11099;41.564;23.296;2023-08-08T01:50:43;97220.59;;;20.13;93.43
21869;BME280;11099;41.564;23.296;2023-08-08T01:53:08;97155.47;;;19.30;94.18
21869;BME280;11099;41.564;23.296;2023-08-08T01:55:34;97239.41;;;19.99;94.36
21869;BME280;11099;41.564;23.296;2023-08-08T01:57:59;97244.34;;;19.90;94.44
21869;BME280;11099;41.564;23.296;2023-08-08T02:00:25;97159.22;;;19.21;95.59
21869;BME280;11099;41.564;23.296;2023-08-08T02:02:50;97107.84;;;19.07;94.33
21869;BME280;11099;41.564;23.296;2023-08-08T02:05:16;97173.81;;;19.13;97.28
21869;BME280;11099;41.564;23.296;2023-08-08T02:07:41;97132.25;;;18.84;97.81
21869;BME280;11099;41.564;23.296;2023-08-08T02:10:07;97157.53;;;18.73;98.79
21869;BME280;11099;41.564;23.296;2023-08-08T02:12:33;97111.25;;;18.37;98.58
21869;BME280;11099;41.564;23.296;2023-08-08T02:17:42;97098.47;;;18.30;99.68
21869;BME280;11099;41.564;23.296;2023-08-08T02:20:08;97224.41;;;19.24;99.09
21869;BME280;11099;41.564;23.296;2023-08-08T02:22:34;97235.31;;;19.34;98.28
21869;BME280;11099;41.564;23.296;2023-08-08T02:25:00;97156.06;;;18.79;97.30
21869;BME280;11099;41.564;23.296;2023-08-08T02:27:25;97134.41;;;18.72;96.22
21869;BME280;11099;41.564;23.296;2023-08-08T02:29:51;97186.28;;;18.95;96.48
21869;BME280;11099;41.564;23.296;2023-08-08T02:32:16;97149.81;;;18.41;96.35
21869;BME280;11099;41.564;23.296;2023-08-08T02:34:42;97258.00;;;18.96;98.83
21869;BME280;11099;41.564;23.296;2023-08-08T02:37:08;97271.63;;;19.07;99.22
21869;BME280;11099;41.564;23.296;2023-08-08T02:39:33;97187.56;;;18.14;100.00
21869;BME280;11099;41.564;23.296;2023-08-08T02:41:59;97286.31;;;18.79;99.10
21869;BME280;11099;41.564;23.296;2023-08-08T02:44:24;97178.84;;;18.25;97.89
21869;BME280;11099;41.564;23.296;2023-08-08T02:46:50;97173.69;;;18.42;97.11
21869;BME280;11099;41.564;23.296;2023-08-08T02:49:15;97230.38;;;18.76;96.56
21869;BME280;11099;41.564;23.296;2023-08-08T02:51:41;97184.19;;;18.21;98.70
21869;BME280;11099;41.564;23.296;2023-08-08T02:54:06;97227.66;;;18.20;100.00
21869;BME280;11099;41.564;23.296;2023-08-08T02:56:32;97166.00;;;17.88;100.00
21869;BME280;11099;41.564;23.296;2023-08-08T02:58:57;97340.38;;;18.67;100.00
21869;BME280;11099;41.564;23.296;2023-08-08T03:01:23;97216.59;;;18.02;100.00
21869;BME280;11099;41.564;23.296;2023-08-08T03:03:49;97303.50;;;18.71;99.69
21869;BME280;11099;41.564;23.296;2023-08-08T03:06:14;97311.19;;;18.69;99.13
21869;BME280;11099;41.564;23.296;2023-08-08T03:08:40;97325.44;;;18.96;97.90
21869;BME280;11099;41.564;23.296;2023-08-08T03:11:06;97326.06;;;18.86;97.50
21869;BME280;11099;41.564;23.296;2023-08-08T03:13:31;97248.88;;;18.51;96.17
21869;BME280;11099;41.564;23.296;2023-08-08T03:15:57;97176.59;;;17.77;95.78
21869;BME280;11099;41.564;23.296;2023-08-08T03:18:22;97208.28;;;18.10;95.50
21869;BME280;11099;41.564;23.296;2023-08-08T03:20:48;97263.81;;;18.45;93.69
21869;BME280;11099;41.564;23.296;2023-08-08T03:23:14;97263.63;;;18.57;92.31
21869;BME280;11099;41.564;23.296;2023-08-08T03:25:39;97353.41;;;19.14;91.56
21869;BME280;11099;41.564;23.296;2023-08-08T03:28:05;97321.91;;;18.92;91.09
21869;BME280;11099;41.564;23.296;2023-08-08T03:30:30;97353.53;;;18.95;91.24
21869;BME280;11099;41.564;23.296;2023-08-08T03:32:56;97286.81;;;18.39;91.33
21869;BME280;11099;41.564;23.296;2023-08-08T03:35:21;97296.66;;;18.28;92.02
21869;BME280;11099;41.564;23.296;2023-08-08T03:37:47;97273.34;;;17.89;92.27
21869;BME280;11099;41.564;23.296;2023-08-08T03:40:12;97246.59;;;17.77;92.09
21869;BME280;11099;41.564;23.296;2023-08-08T03:42:40;97235.72;;;17.93;91.59
21869;BME280;11099;41.564;23.296;2023-08-08T03:45:07;97407.59;;;18.76;91.93
21869;BME280;11099;41.564;23.296;2023-08-08T03:47:33;97302.41;;;18.26;90.92
21869;BME280;11099;41.564;23.296;2023-08-08T03:49:58;97384.38;;;18.48;91.51
21869;BME280;11099;41.564;23.296;2023-08-08T03:52:24;97282.03;;;18.29;90.03
21869;BME280;11099;41.564;23.296;2023-08-08T03:54:50;97376.72;;;18.73;90.15
21869;BME280;11099;41.564;23.296;2023-08-08T03:57:15;97414.16;;;19.01;89.61
21869;BME280;11099;41.564;23.296;2023-08-08T03:59:41;97349.44;;;18.78;89.44
21869;BME280;11099;41.564;23.296;2023-08-08T04:02:06;97352.41;;;18.69;88.94
21869;BME280;11099;41.564;23.296;2023-08-08T04:04:32;97408.94;;;19.15;88.55
21869;BME280;11099;41.564;23.296;2023-08-08T04:06:58;97337.94;;;18.81;88.50
21869;BME280;11099;41.564;23.296;2023-08-08T04:09:23;97282.19;;;18.13;88.84
21869;BME280;11099;41.564;23.296;2023-08-08T04:11:49;97321.88;;;18.65;87.37
21869;BME280;11099;41.564;23.296;2023-08-08T04:14:14;97337.94;;;18.81;87.93
21869;BME280;11099;41.564;23.296;2023-08-08T04:16:40;97348.41;;;18.86;86.84
21869;BME280;11099;41.564;23.296;2023-08-08T04:19:05;97302.47;;;18.56;86.25
21869;BME280;11099;41.564;23.296;2023-08-08T04:21:31;97400.53;;;18.94;88.78
21869;BME280;11099;41.564;23.296;2023-08-08T04:23:58;97302.66;;;18.17;90.62
21869;BME280;11099;41.564;23.296;2023-08-08T04:26:24;97333.25;;;18.29;91.04
21869;BME280;11099;41.564;23.296;2023-08-08T04:28:49;97328.03;;;18.16;89.42
21869;BME280;11099;41.564;23.296;2023-08-08T04:31:15;97318.97;;;18.25;89.57
21869;BME280;11099;41.564;23.296;2023-08-08T04:33:40;97444.22;;;19.03;88.18
21869;BME280;11099;41.564;23.296;2023-08-08T04:36:06;97411.69;;;19.19;86.32
21869;BME280;11099;41.564;23.296;2023-08-08T04:38:31;97355.00;;;18.89;86.54
21869;BME280;11099;41.564;23.296;2023-08-08T04:40:57;97423.03;;;19.32;86.64
21869;BME280;11099;41.564;23.296;2023-08-08T04:43:22;97341.88;;;18.87;85.60
21869;BME280;11099;41.564;23.296;2023-08-08T04:45:48;97414.72;;;19.14;85.71
21869;BME280;11099;41.564;23.296;2023-08-08T04:48:13;97354.69;;;18.94;84.93
21869;BME280;11099;41.564;23.296;2023-08-08T04:50:39;97451.25;;;19.38;85.72
21869;BME280;11099;41.564;23.296;2023-08-08T04:53:06;97385.53;;;19.23;84.70
21869;BME280;11099;41.564;23.296;2023-08-08T04:55:31;97395.72;;;19.07;85.20
21869;BME280;11099;41.564;23.296;2023-08-08T04:57:57;97414.09;;;18.98;85.33
21869;BME280;11099;41.564;23.296;2023-08-08T05:00:22;97456.41;;;19.46;84.10
21869;BME280;11099;41.564;23.296;2023-08-08T05:02:48;97418.25;;;18.95;84.92
21869;BME280;11099;41.564;23.296;2023-08-08T05:05:13;97459.56;;;19.52;83.78
21869;BME280;11099;41.564;23.296;2023-08-08T05:07:38;97364.78;;;18.51;84.05
21869;BME280;11099;41.564;23.296;2023-08-08T05:10:05;97386.19;;;18.86;83.65
21869;BME280;11099;41.564;23.296;2023-08-08T05:12:30;97426.47;;;19.29;83.10
21869;BME280;11099;41.564;23.296;2023-08-08T05:14:56;97354.91;;;18.82;83.18
21869;BME280;11099;41.564;23.296;2023-08-08T05:17:21;97377.34;;;18.66;83.20
21869;BME280;11099;41.564;23.296;2023-08-08T05:19:47;97505.00;;;19.46;82.74
21869;BME280;11099;41.564;23.296;2023-08-08T05:22:13;97433.38;;;19.00;83.33
21869;BME280;11099;41.564;23.296;2023-08-08T05:24:38;97516.03;;;19.34;84.03
21869;BME280;11099;41.564;23.296;2023-08-08T05:27:04;97460.72;;;19.25;83.40
21869;BME280;11099;41.564;23.296;2023-08-08T05:29:30;97503.22;;;19.31;83.92
21869;BME280;11099;41.564;23.296;2023-08-08T05:31:55;97441.25;;;19.12;83.76
21869;BME280;11099;41.564;23.296;2023-08-08T05:34:23;97430.97;;;18.68;85.78
21869;BME280;11099;41.564;23.296;2023-08-08T05:36:49;97494.84;;;18.87;85.59
21869;BME280;11099;41.564;23.296;2023-08-08T05:39:15;97435.81;;;18.39;84.95
21869;BME280;11099;41.564;23.296;2023-08-08T05:41:40;97424.75;;;18.44;85.28
21869;BME280;11099;41.564;23.296;2023-08-08T05:44:06;97500.22;;;18.87;85.12
21869;BME280;11099;41.564;23.296;2023-08-08T05:46:31;97499.66;;;19.77;82.10
21869;BME280;11099;41.564;23.296;2023-08-08T05:48:57;97508.00;;;20.28;79.34
21869;BME280;11099;41.564;23.296;2023-08-08T05:51:22;97450.09;;;20.33;76.11
21869;BME280;11099;41.564;23.296;2023-08-08T05:53:48;97419.34;;;20.07;75.59
21869;BME280;11099;41.564;23.296;2023-08-08T05:56:13;97515.66;;;20.97;74.44
21869;BME280;11099;41.564;23.296;2023-08-08T05:58:39;97565.03;;;21.27;73.16
21869;BME280;11099;41.564;23.296;2023-08-08T06:01:04;97449.78;;;21.26;69.68
21869;BME280;11099;41.564;23.296;2023-08-08T06:03:34;97572.28;;;21.64;70.58
21869;BME280;11099;41.564;23.296;2023-08-08T06:05:59;97563.97;;;21.98;69.16
21869;BME280;11099;41.564;23.296;2023-08-08T06:08:25;97540.31;;;21.88;69.99
21869;BME280;11099;41.564;23.296;2023-08-08T06:10:50;97487.00;;;21.40;69.94
21869;BME280;11099;41.564;23.296;2023-08-08T06:13:16;97554.59;;;21.84;69.65
21869;BME280;11099;41.564;23.296;2023-08-08T06:15:41;97478.34;;;20.76;72.24
21869;BME280;11099;41.564;23.296;2023-08-08T06:18:06;97541.69;;;21.60;71.00
21869;BME280;11099;41.564;23.296;2023-08-08T06:20:32;97546.75;;;21.69;70.98
21869;BME280;11099;41.564;23.296;2023-08-08T06:22:57;97468.78;;;20.86;71.98
21869;BME280;11099;41.564;23.296;2023-08-08T06:25:23;97548.19;;;21.48;71.38
21869;BME280;11099;41.564;23.296;2023-08-08T06:27:48;97548.38;;;21.80;70.60
21869;BME280;11099;41.564;23.296;2023-08-08T06:30:14;97482.66;;;21.28;70.31
21869;BME280;11099;41.564;23.296;2023-08-08T06:32:40;97538.25;;;21.67;70.19
21869;BME280;11099;41.564;23.296;2023-08-08T06:35:06;97431.53;;;21.16;69.01
21869;BME280;11099;41.564;23.296;2023-08-08T06:37:31;97444.88;;;21.43;68.49
21869;BME280;11099;41.564;23.296;2023-08-08T06:39:57;97557.13;;;22.22;67.87
21869;BME280;11099;41.564;23.296;2023-08-08T06:42:22;97521.88;;;22.18;66.90
21869;BME280;11099;41.564;23.296;2023-08-08T06:44:48;97557.59;;;22.45;66.34
21869;BME280;11099;41.564;23.296;2023-08-08T06:47:14;97463.06;;;22.37;64.45
21869;BME280;11099;41.564;23.296;2023-08-08T06:49:39;97530.53;;;22.59;65.61
21869;BME280;11099;41.564;23.296;2023-08-08T06:52:05;97448.31;;;21.40;67.20
21869;BME280;11099;41.564;23.296;2023-08-08T06:54:31;97507.06;;;22.08;66.42
21869;BME280;11099;41.564;23.296;2023-08-08T06:56:57;97495.16;;;22.20;64.71
21869;BME280;11099;41.564;23.296;2023-08-08T06:59:23;97562.06;;;22.05;67.47
21869;BME280;11099;41.564;23.296;2023-08-08T07:01:50;97505.28;;;22.38;64.80
21869;BME280;11099;41.564;23.296;2023-08-08T07:04:16;97569.28;;;22.67;64.97
21869;BME280;11099;41.564;23.296;2023-08-08T07:06:43;97470.34;;;22.18;64.54
21869;BME280;11099;41.564;23.296;2023-08-08T07:09:08;97511.88;;;22.44;63.68
21869;BME280;11099;41.564;23.296;2023-08-08T07:11:36;97487.50;;;22.47;61.91
21869;BME280;11099;41.564;23.296;2023-08-08T07:14:02;97562.69;;;22.57;63.13
21869;BME280;11099;41.564;23.296;2023-08-08T07:16:28;97498.75;;;22.60;61.80
21869;BME280;11099;41.564;23.296;2023-08-08T07:18:53;97511.53;;;22.67;62.44
21869;BME280;11099;41.564;23.296;2023-08-08T07:21:19;97540.31;;;23.18;60.34
21869;BME280;11099;41.564;23.296;2023-08-08T07:23:45;97514.31;;;23.27;60.32
21869;BME280;11099;41.564;23.296;2023-08-08T07:26:11;97537.56;;;23.53;58.35
21869;BME280;11099;41.564;23.296;2023-08-08T07:28:36;97520.91;;;22.98;60.71
21869;BME280;11099;41.564;23.296;2023-08-08T07:31:02;97576.00;;;23.09;60.35
21869;BME280;11099;41.564;23.296;2023-08-08T07:33:27;97567.09;;;23.19;59.73
21869;BME280;11099;41.564;23.296;2023-08-08T07:35:53;97549.59;;;23.34;59.25
21869;BME280;11099;41.564;23.296;2023-08-08T07:38:18;97558.94;;;23.16;59.63
21869;BME280;11099;41.564;23.296;2023-08-08T07:40:44;97510.75;;;22.59;60.69
21869;BME280;11099;41.564;23.296;2023-08-08T07:43:11;97560.06;;;23.07;60.11
21869;BME280;11099;41.564;23.296;2023-08-08T07:45:37;97465.81;;;22.72;59.46
21869;BME280;11099;41.564;23.296;2023-08-08T07:48:03;97548.84;;;23.34;58.85
21869;BME280;11099;41.564;23.296;2023-08-08T07:50:29;97501.13;;;23.19;58.26
21869;BME280;11099;41.564;23.296;2023-08-08T07:52:54;97575.22;;;23.26;59.29
21869;BME280;11099;41.564;23.296;2023-08-08T07:55:20;97494.88;;;22.68;59.53
21869;BME280;11099;41.564;23.296;2023-08-08T07:57:45;97579.09;;;23.54;57.27
21869;BME280;11099;41.564;23.296;2023-08-08T08:00:11;97528.28;;;23.04;56.86
21869;BME280;11099;41.564;23.296;2023-08-08T08:02:42;97558.53;;;23.46;54.96
21869;BME280;11099;41.564;23.296;2023-08-08T08:05:08;97578.72;;;23.45;55.76
21869;BME280;11099;41.564;23.296;2023-08-08T08:07:35;97529.84;;;23.41;54.91
21869;BME280;11099;41.564;23.296;2023-08-08T08:10:02;97506.56;;;23.19;54.61
21869;BME280;11099;41.564;23.296;2023-08-08T08:12:30;97537.22;;;23.40;54.70
21869;BME280;11099;41.564;23.296;2023-08-08T08:14:56;97487.13;;;23.49;52.31
21869;BME280;11099;41.564;23.296;2023-08-08T08:17:21;97587.63;;;23.84;53.19
21869;BME280;11099;41.564;23.296;2023-08-08T08:19:46;97470.50;;;23.04;52.90
21869;BME280;11099;41.564;23.296;2023-08-08T08:22:12;97572.75;;;24.35;51.78
21869;BME280;11099;41.564;23.296;2023-08-08T08:24:37;97561.06;;;24.42;50.48
21869;BME280;11099;41.564;23.296;2023-08-08T08:27:03;97521.31;;;24.55;49.95
21869;BME280;11099;41.564;23.296;2023-08-08T08:29:28;97476.38;;;24.22;49.45
21869;BME280;11099;41.564;23.296;2023-08-08T08:31:54;97473.50;;;24.58;48.39
21869;BME280;11099;41.564;23.296;2023-08-08T08:34:19;97468.63;;;24.21;47.72
21869;BME280;11099;41.564;23.296;2023-08-08T08:36:45;97505.53;;;24.25;48.25
21869;BME280;11099;41.564;23.296;2023-08-08T08:39:10;97515.22;;;24.40;47.49
21869;BME280;11099;41.564;23.296;2023-08-08T08:41:36;97459.13;;;24.57;46.67
21869;BME280;11099;41.564;23.296;2023-08-08T08:44:04;97540.44;;;24.44;46.75
21869;BME280;11099;41.564;23.296;2023-08-08T08:46:31;97535.94;;;24.83;46.05
21869;BME280;11099;41.564;23.296;2023-08-08T08:48:59;97544.44;;;24.88;45.93
21869;BME280;11099;41.564;23.296;2023-08-08T08:51:25;97436.41;;;24.19;45.10
21869;BME280;11099;41.564;23.296;2023-08-08T08:53:51;97455.28;;;24.51;45.36
21869;BME280;11099;41.564;23.296;2023-08-08T08:56:18;97535.38;;;25.09;43.62
21869;BME280;11099;41.564;23.296;2023-08-08T08:58:44;97548.84;;;25.72;43.04
21869;BME280;11099;41.564;23.296;2023-08-08T09:01:09;97543.00;;;25.70;42.76
21869;BME280;11099;41.564;23.296;2023-08-08T09:03:36;97535.16;;;26.13;41.74
21869;BME280;11099;41.564;23.296;2023-08-08T09:06:02;97519.84;;;26.23;41.57
21869;BME280;11099;41.564;23.296;2023-08-08T09:08:28;97448.44;;;25.63;41.03
21869;BME280;11099;41.564;23.296;2023-08-08T09:10:55;97483.00;;;25.77;40.24
21869;BME280;11099;41.564;23.296;2023-08-08T09:13:22;97412.28;;;25.59;39.29
21869;BME280;11099;41.564;23.296;2023-08-08T09:15:48;97410.81;;;25.17;40.29
21869;BME280;11099;41.564;23.296;2023-08-08T09:18:16;97501.44;;;26.31;39.33
21869;BME280;11099;41.564;23.296;2023-08-08T09:20:50;97462.41;;;25.69;39.68
21869;BME280;11099;41.564;23.296;2023-08-08T09:23:16;97544.81;;;26.56;39.50
21869;BME280;11099;41.564;23.296;2023-08-08T09:25:41;97491.94;;;26.12;39.77
21869;BME280;11099;41.564;23.296;2023-08-08T09:28:07;97508.41;;;26.32;39.43
21869;BME280;11099;41.564;23.296;2023-08-08T09:30:36;97430.06;;;25.74;39.36
21869;BME280;11099;41.564;23.296;2023-08-08T09:33:02;97469.28;;;26.15;38.82
21869;BME280;11099;41.564;23.296;2023-08-08T09:35:31;97422.63;;;25.75;38.66
21869;BME280;11099;41.564;23.296;2023-08-08T09:37:57;97418.84;;;26.26;38.14
21869;BME280;11099;41.564;23.296;2023-08-08T09:40:23;97411.69;;;26.36;37.72
21869;BME280;11099;41.564;23.296;2023-08-08T09:42:51;97502.53;;;26.91;37.88
21869;BME280;11099;41.564;23.296;2023-08-08T09:45:16;97523.19;;;26.92;37.01
21869;BME280;11099;41.564;23.296;2023-08-08T09:47:42;97527.72;;;27.02;37.41
21869;BME280;11099;41.564;23.296;2023-08-08T09:50:08;97525.22;;;26.61;38.18
21869;BME280;11099;41.564;23.296;2023-08-08T09:52:34;97499.31;;;26.72;37.56
21869;BME280;11099;41.564;23.296;2023-08-08T09:55:02;97518.22;;;27.37;37.29
21869;BME280;11099;41.564;23.296;2023-08-08T09:57:28;97407.53;;;26.55;37.37
21869;BME280;11099;41.564;23.296;2023-08-08T09:59:56;97440.34;;;26.51;36.63
21869;BME280;11099;41.564;23.296;2023-08-08T10:02:21;97469.84;;;27.11;36.29
21869;BME280;11099;41.564;23.296;2023-08-08T10:04:48;97417.94;;;26.87;35.87
21869;BME280;11099;41.564;23.296;2023-08-08T10:07:14;97443.16;;;27.42;36.10
21869;BME280;11099;41.564;23.296;2023-08-08T10:09:40;97515.25;;;27.01;36.25
21869;BME280;11099;41.564;23.296;2023-08-08T10:12:07;97493.09;;;26.95;35.32
21869;BME280;11099;41.564;23.296;2023-08-08T10:14:37;97500.88;;;26.97;35.67
21869;BME280;11099;41.564;23.296;2023-08-08T10:17:06;97402.13;;;25.63;36.08
21869;BME280;11099;41.564;23.296;2023-08-08T10:19:32;97388.13;;;26.22;35.29
21869;BME280;11099;41.564;23.296;2023-08-08T10:22:04;97508.31;;;26.96;35.61
21869;BME280;11099;41.564;23.296;2023-08-08T10:24:36;97455.84;;;26.58;37.21
21869;BME280;11099;41.564;23.296;2023-08-08T10:27:03;97501.56;;;27.04;36.76
21869;BME280;11099;41.564;23.296;2023-08-08T10:29:33;97406.69;;;26.58;36.04
21869;BME280;11099;41.564;23.296;2023-08-08T10:32:04;97466.72;;;26.62;35.99
21869;BME280;11099;41.564;23.296;2023-08-08T10:34:43;97510.22;;;26.99;34.99
21869;BME280;11099;41.564;23.296;2023-08-08T10:37:09;97456.28;;;26.53;36.17
21869;BME280;11099;41.564;23.296;2023-08-08T10:39:35;97390.88;;;26.19;35.39
21869;BME280;11099;41.564;23.296;2023-08-08T10:42:03;97486.25;;;27.34;35.02
21869;BME280;11099;41.564;23.296;2023-08-08T10:44:30;97461.72;;;27.50;34.84
21869;BME280;11099;41.564;23.296;2023-08-08T10:46:56;97446.25;;;26.97;35.71
21869;BME280;11099;41.564;23.296;2023-08-08T10:49:22;97387.41;;;26.92;34.58
21869;BME280;11099;41.564;23.296;2023-08-08T10:51:48;97456.19;;;27.11;35.98
21869;BME280;11099;41.564;23.296;2023-08-08T10:54:18;97401.31;;;26.78;35.77
21869;BME280;11099;41.564;23.296;2023-08-08T10:56:52;97455.72;;;26.92;36.11
21869;BME280;11099;41.564;23.296;2023-08-08T10:59:20;97450.72;;;27.11;35.49
21869;BME280;11099;41.564;23.296;2023-08-08T11:01:48;97341.50;;;26.37;35.41
21869;BME280;11099;41.564;23.296;2023-08-08T11:04:15;97449.88;;;27.37;34.71
21869;BME280;11099;41.564;23.296;2023-08-08T11:06:41;97464.25;;;27.18;34.99
21869;BME280;11099;41.564;23.296;2023-08-08T11:09:07;97412.72;;;27.20;34.93
21869;BME280;11099;41.564;23.296;2023-08-08T11:11:43;97474.38;;;27.64;34.86
21869;BME280;11099;41.564;23.296;2023-08-08T11:14:17;97477.88;;;27.21;35.22
21869;BME280;11099;41.564;23.296;2023-08-08T11:16:44;97486.06;;;27.65;34.76
21869;BME280;11099;41.564;23.296;2023-08-08T11:19:11;97476.69;;;28.05;33.91
21869;BME280;11099;41.564;23.296;2023-08-08T11:21:42;97404.22;;;26.67;34.58
21869;BME280;11099;41.564;23.296;2023-08-08T11:24:09;97443.50;;;27.44;34.43
21869;BME280;11099;41.564;23.296;2023-08-08T11:26:36;97474.78;;;27.63;34.37
21869;BME280;11099;41.564;23.296;2023-08-08T11:29:03;97462.53;;;27.27;34.44
21869;BME280;11099;41.564;23.296;2023-08-08T11:31:29;97419.00;;;26.93;34.23
21869;BME280;11099;41.564;23.296;2023-08-08T11:33:56;97362.84;;;26.69;33.95
21869;BME280;11099;41.564;23.296;2023-08-08T11:36:22;97393.47;;;26.80;34.26
21869;BME280;11099;41.564;23.296;2023-08-08T11:38:49;97433.88;;;27.36;33.94
21869;BME280;11099;41.564;23.296;2023-08-08T11:41:17;97433.47;;;27.57;33.71
21869;BME280;11099;41.564;23.296;2023-08-08T11:43:46;97402.63;;;26.93;33.78
21869;BME280;11099;41.564;23.296;2023-08-08T11:46:17;97389.72;;;26.94;33.26
21869;BME280;11099;41.564;23.296;2023-08-08T11:48:46;97454.16;;;27.38;32.48
21869;BME280;11099;41.564;23.296;2023-08-08T11:51:14;97401.59;;;26.84;33.04
21869;BME280;11099;41.564;23.296;2023-08-08T11:53:51;97454.09;;;27.42;33.03
21869;BME280;11099;41.564;23.296;2023-08-08T11:56:19;97414.34;;;27.37;32.95
21869;BME280;11099;41.564;23.296;2023-08-08T11:58:44;97378.53;;;27.31;32.58
21869;BME280;11099;41.564;23.296;2023-08-08T12:01:10;97388.13;;;27.20;33.33
21869;BME280;11099;41.564;23.296;2023-08-08T12:03:39;97420.44;;;27.65;33.03
21869;BME280;11099;41.564;23.296;2023-08-08T12:06:15;97434.38;;;27.50;32.36
21869;BME280;11099;41.564;23.296;2023-08-08T12:08:43;97374.69;;;27.05;32.88
21869;BME280;11099;41.564;23.296;2023-08-08T12:11:09;97407.91;;;27.04;32.88
21869;BME280;11099;41.564;23.296;2023-08-08T12:13:43;97350.38;;;26.68;33.08
21869;BME280;11099;41.564;23.296;2023-08-08T12:16:10;97358.03;;;26.76;33.49
21869;BME280;11099;41.564;23.296;2023-08-08T12:18:37;97350.44;;;26.88;32.74
21869;BME280;11099;41.564;23.296;2023-08-08T12:21:06;97349.09;;;26.96;33.23
21869;BME280;11099;41.564;23.296;2023-08-08T12:23:32;97428.00;;;27.37;32.66
21869;BME280;11099;41.564;23.296;2023-08-08T12:25:58;97415.84;;;26.95;32.81
21869;BME280;11099;41.564;23.296;2023-08-08T12:28:24;97318.84;;;26.63;32.58
21869;BME280;11099;41.564;23.296;2023-08-08T12:30:50;97375.81;;;27.08;32.73
21869;BME280;11099;41.564;23.296;2023-08-08T12:33:16;97299.00;;;26.36;32.40
21869;BME280;11099;41.564;23.296;2023-08-08T12:35:41;97330.66;;;26.80;32.16
21869;BME280;11099;41.564;23.296;2023-08-08T12:38:07;97403.25;;;27.01;32.60
21869;BME280;11099;41.564;23.296;2023-08-08T12:40:32;97350.03;;;26.66;32.82
21869;BME280;11099;41.564;23.296;2023-08-08T12:42:59;97371.66;;;26.53;32.89
21869;BME280;11099;41.564;23.296;2023-08-08T12:45:24;97402.81;;;27.02;32.97
21869;BME280;11099;41.564;23.296;2023-08-08T12:47:50;97340.59;;;26.70;32.34
21869;BME280;11099;41.564;23.296;2023-08-08T12:50:15;97359.91;;;26.79;32.54